Time;durP1;ratioP1;P1;durP2;ratioP2;P2;SDS_P1;SDS_P2;PMS_P1;PMS_P2;Temp;Humidity;BMP_temperature;BMP_pressure;BME280_temperature;BME280_humidity;BME280_pressure;Samples;Min_cycle;Max_cycle;Signal;HPM_P1;HPM_P2
2024/02/27 00:01:21;;;;;;;39.00;21.70;;;4.80;99.90;;;;;;5059272;28;20204;-72
2024/02/27 00:03:49;;;;;;;33.08;22.40;;;4.80;99.90;;;;;;5065129;28;20223;-73
2024/02/27 00:06:16;;;;;;;35.70;22.40;;;4.90;99.90;;;;;;5068822;28;20587;-73
2024/02/27 00:08:43;;;;;;;37.45;20.75;;;5.00;99.90;;;;;;5073652;28;20237;-72
2024/02/27 00:11:10;;;;;;;44.88;27.58;;;5.00;99.90;;;;;;5070329;28;20205;-72
2024/02/27 00:13:37;;;;;;;37.17;25.02;;;5.10;99.90;;;;;;5064837;28;20745;-73
2024/02/27 00:16:06;;;;;;;42.63;26.63;;;5.00;99.90;;;;;;5055503;28;20219;-71
2024/02/27 00:18:33;;;;;;;39.42;23.77;;;5.00;99.90;;;;;;5052829;28;20204;-73
2024/02/27 00:20:59;;;;;;;40.05;22.92;;;5.00;99.90;;;;;;5058513;28;20634;-73
2024/02/27 00:23:27;;;;;;;40.90;25.60;;;5.00;99.90;;;;;;5055687;28;20242;-74
2024/02/27 00:25:54;;;;;;;41.70;24.08;;;5.10;99.90;;;;;;5055584;28;20196;-70
2024/02/27 00:28:21;;;;;;;36.10;24.20;;;5.10;99.90;;;;;;5063416;28;20232;-71
2024/02/27 00:30:47;;;;;;;39.88;23.65;;;5.10;99.90;;;;;;5067004;28;20200;-73
2024/02/27 00:33:16;;;;;;;49.30;27.50;;;5.20;99.90;;;;;;5069539;28;20250;-74
2024/02/27 00:35:43;;;;;;;42.28;26.08;;;5.10;99.90;;;;;;5055678;28;20216;-69
2024/02/27 00:38:10;;;;;;;36.88;22.50;;;5.10;99.90;;;;;;5056197;28;20257;-72
2024/02/27 00:40:37;;;;;;;42.85;25.30;;;5.10;99.90;;;;;;5063727;28;20211;-71
2024/02/27 00:43:05;;;;;;;43.22;25.70;;;5.10;99.90;;;;;;5057204;28;20281;-74
2024/02/27 00:45:32;;;;;;;45.10;27.38;;;5.10;99.90;;;;;;5058360;28;20200;-73
2024/02/27 00:47:59;;;;;;;40.63;24.30;;;5.10;99.90;;;;;;5068299;28;20212;-73
2024/02/27 00:50:29;;;;;;;40.20;25.05;;;5.10;99.90;;;;;;5067356;28;20270;-74
2024/02/27 00:52:57;;;;;;;40.65;25.27;;;5.10;99.90;;;;;;5065941;28;20224;-73
2024/02/27 00:55:24;;;;;;;41.00;25.80;;;5.20;99.90;;;;;;5060391;28;20276;-76
2024/02/27 00:57:51;;;;;;;37.63;23.73;;;5.20;99.90;;;;;;5062060;28;20253;-72
2024/02/27 01:00:18;;;;;;;45.70;26.10;;;5.20;99.90;;;;;;5062419;28;20243;-72
2024/02/27 01:02:45;;;;;;;47.05;28.65;;;5.10;99.90;;;;;;5058514;28;20729;-76
2024/02/27 01:05:12;;;;;;;45.85;25.30;;;5.10;99.90;;;;;;5059535;28;20207;-73
2024/02/27 01:07:42;;;;;;;39.20;24.98;;;5.10;99.90;;;;;;5064817;28;20207;-75
2024/02/27 01:10:10;;;;;;;37.13;23.83;;;5.00;99.90;;;;;;5056038;28;20215;-71
2024/02/27 01:12:37;;;;;;;37.95;22.92;;;5.10;99.90;;;;;;5054944;28;20228;-74
2024/02/27 01:15:05;;;;;;;41.15;22.58;;;5.20;99.90;;;;;;5059338;28;20265;-72
2024/02/27 01:17:32;;;;;;;35.58;22.00;;;5.10;99.90;;;;;;5056000;28;20246;-73
2024/02/27 01:19:59;;;;;;;39.70;23.95;;;5.20;99.90;;;;;;5061122;28;20196;-71
2024/02/27 01:22:27;;;;;;;44.88;23.80;;;5.10;99.90;;;;;;5070472;28;20234;-74
2024/02/27 01:24:56;;;;;;;36.53;21.90;;;5.20;99.90;;;;;;5061487;28;20286;-72
2024/02/27 01:27:23;;;;;;;35.35;20.65;;;5.30;99.90;;;;;;5058137;28;20769;-71
2024/02/27 01:29:51;;;;;;;40.08;22.08;;;5.30;99.90;;;;;;5071035;28;20276;-75
2024/02/27 01:32:18;;;;;;;31.52;19.38;;;5.30;99.90;;;;;;5062187;28;20204;-74
2024/02/27 01:34:45;;;;;;;39.22;23.88;;;5.30;99.90;;;;;;5063803;28;20199;-73
2024/02/27 01:37:12;;;;;;;40.70;22.80;;;5.30;99.90;;;;;;5065478;28;20199;-73
2024/02/27 01:39:39;;;;;;;33.83;21.40;;;5.30;99.90;;;;;;5061010;28;20278;-70
2024/02/27 01:42:08;;;;;;;43.05;25.73;;;5.30;99.90;;;;;;5064538;28;20245;-71
2024/02/27 01:44:35;;;;;;;39.40;23.05;;;5.30;99.90;;;;;;5063346;28;20254;-74
2024/02/27 01:47:02;;;;;;;38.60;22.88;;;5.40;99.90;;;;;;5063360;28;20203;-72
2024/02/27 01:49:29;;;;;;;41.65;23.58;;;5.40;99.90;;;;;;5066333;28;20278;-76
2024/02/27 01:51:57;;;;;;;35.75;20.60;;;5.40;99.90;;;;;;5061240;28;20208;-72
2024/02/27 01:54:26;;;;;;;30.95;18.20;;;5.30;99.90;;;;;;5061501;28;20225;-73
2024/02/27 01:56:58;;;;;;;32.80;18.92;;;5.30;99.90;;;;;;5063687;28;20879;-72
2024/02/27 01:59:26;;;;;;;31.05;17.70;;;5.30;99.90;;;;;;5059722;28;20199;-74
2024/02/27 02:01:54;;;;;;;34.83;20.20;;;5.30;99.90;;;;;;5062053;28;20257;-71
2024/02/27 02:04:21;;;;;;;34.78;18.75;;;5.20;99.90;;;;;;5054297;28;20235;-73
2024/02/27 02:06:48;;;;;;;30.67;17.70;;;5.20;99.90;;;;;;5060594;28;20673;-75
2024/02/27 02:09:16;;;;;;;34.72;18.63;;;5.20;99.90;;;;;;5055000;28;20686;-73
2024/02/27 02:11:43;;;;;;;38.10;21.48;;;5.20;99.90;;;;;;5061072;28;20200;-72
2024/02/27 02:14:10;;;;;;;34.90;18.73;;;5.20;99.90;;;;;;5065489;28;20261;-72
2024/02/27 02:16:39;;;;;;;34.67;19.13;;;5.20;99.90;;;;;;5064540;28;20246;-73
2024/02/27 02:19:07;;;;;;;38.28;20.48;;;5.20;99.90;;;;;;5056935;28;20279;-74
2024/02/27 02:21:35;;;;;;;35.92;21.88;;;5.30;99.90;;;;;;5064513;28;20249;-73
2024/02/27 02:24:03;;;;;;;34.25;19.60;;;5.30;99.90;;;;;;5070801;28;20296;-73
2024/02/27 02:26:31;;;;;;;35.55;20.60;;;5.40;99.90;;;;;;5063670;28;20204;-73
2024/02/27 02:28:59;;;;;;;38.65;21.02;;;5.40;99.90;;;;;;5059907;28;20640;-72
2024/02/27 02:31:27;;;;;;;36.35;19.65;;;5.40;99.90;;;;;;5053402;28;20204;-72
2024/02/27 02:33:54;;;;;;;36.85;20.58;;;5.40;99.90;;;;;;5053698;28;20665;-73
2024/02/27 02:36:21;;;;;;;32.75;19.83;;;5.30;99.90;;;;;;5053386;28;20231;-71
2024/02/27 02:38:50;;;;;;;36.42;19.30;;;5.30;99.90;;;;;;5057844;28;20239;-72
2024/02/27 02:41:17;;;;;;;41.42;20.42;;;5.30;99.90;;;;;;5068024;28;20216;-76
2024/02/27 02:43:43;;;;;;;44.92;23.13;;;5.30;99.90;;;;;;5063258;28;20631;-75
2024/02/27 02:46:10;;;;;;;36.10;22.40;;;5.40;99.90;;;;;;5070628;28;20195;-72
2024/02/27 02:48:38;;;;;;;36.85;19.52;;;5.40;99.90;;;;;;5080755;28;20200;-74
2024/02/27 02:51:06;;;;;;;32.00;21.17;;;5.50;99.90;;;;;;5084626;28;20256;-73
2024/02/27 02:53:33;;;;;;;47.38;22.48;;;5.50;99.90;;;;;;5065926;28;20224;-71
2024/02/27 02:56:01;;;;;;;38.45;21.95;;;5.50;99.90;;;;;;5061129;28;20204;-71
2024/02/27 02:58:28;;;;;;;35.00;18.40;;;5.50;99.90;;;;;;5064880;28;20253;-75
2024/02/27 03:00:55;;;;;;;42.55;21.40;;;5.50;99.90;;;;;;5066006;28;20196;-75
2024/02/27 03:03:22;;;;;;;30.75;20.40;;;5.50;99.90;;;;;;5067396;28;20701;-73
2024/02/27 03:05:49;;;;;;;38.83;22.77;;;5.60;99.90;;;;;;5058192;28;20200;-76
2024/02/27 03:08:16;;;;;;;35.88;21.08;;;5.50;99.90;;;;;;5071424;28;20196;-72
2024/02/27 03:10:43;;;;;;;35.30;19.92;;;5.50;99.90;;;;;;5061156;28;20235;-74
2024/02/27 03:13:12;;;;;;;42.10;20.92;;;5.50;99.90;;;;;;5060814;28;20216;-71
2024/02/27 03:15:39;;;;;;;35.17;20.35;;;5.50;99.90;;;;;;5057351;28;20671;-72
2024/02/27 03:18:08;;;;;;;32.35;17.48;;;5.50;99.90;;;;;;5063678;28;20207;-72
2024/02/27 03:20:34;;;;;;;33.55;18.20;;;5.50;99.90;;;;;;5063381;28;20206;-71
2024/02/27 03:23:01;;;;;;;32.75;18.75;;;5.50;99.90;;;;;;5063979;28;20223;-73
2024/02/27 03:25:28;;;;;;;40.38;20.05;;;5.50;99.90;;;;;;5068629;28;20568;-74
2024/02/27 03:27:56;;;;;;;30.50;19.52;;;5.50;99.90;;;;;;5070335;28;20203;-72
2024/02/27 03:30:25;;;;;;;33.15;17.92;;;5.50;99.90;;;;;;5069737;28;20562;-72
2024/02/27 03:32:52;;;;;;;28.73;18.30;;;5.60;99.90;;;;;;5056918;28;20273;-73
2024/02/27 03:35:19;;;;;;;30.50;19.20;;;5.60;99.90;;;;;;5062368;28;20203;-72
2024/02/27 03:37:46;;;;;;;32.88;19.63;;;5.60;99.90;;;;;;5058524;28;20681;-71
2024/02/27 03:40:14;;;;;;;31.38;19.58;;;5.60;99.90;;;;;;5068128;28;20203;-71
2024/02/27 03:42:40;;;;;;;30.25;19.42;;;5.60;99.90;;;;;;5063479;28;20624;-75
2024/02/27 03:45:09;;;;;;;29.05;18.20;;;5.60;99.90;;;;;;5070629;28;20716;-71
2024/02/27 03:47:38;;;;;;;32.17;18.98;;;5.60;99.90;;;;;;5079295;28;20247;-71
2024/02/27 03:50:06;;;;;;;30.88;19.42;;;5.60;99.90;;;;;;5060981;28;20692;-72
2024/02/27 03:52:33;;;;;;;31.10;19.88;;;5.70;99.90;;;;;;5065577;28;20257;-72
2024/02/27 03:55:00;;;;;;;31.55;20.98;;;5.70;99.90;;;;;;5057811;28;20211;-72
2024/02/27 03:57:27;;;;;;;27.13;17.55;;;5.60;99.90;;;;;;5067104;28;20237;-72
2024/02/27 03:59:54;;;;;;;28.88;18.67;;;5.60;99.90;;;;;;5062129;28;20608;-73
2024/02/27 04:02:21;;;;;;;34.13;18.48;;;5.60;99.90;;;;;;5066000;28;20199;-74
2024/02/27 04:04:49;;;;;;;34.65;20.75;;;5.50;99.90;;;;;;5068873;28;20195;-74
2024/02/27 04:07:16;;;;;;;33.65;19.17;;;5.60;99.90;;;;;;5056041;28;20569;-71
2024/02/27 04:09:43;;;;;;;30.17;18.38;;;5.60;99.90;;;;;;5063195;28;20231;-73
2024/02/27 04:12:10;;;;;;;31.38;18.52;;;5.50;99.90;;;;;;5066636;28;20203;-73
2024/02/27 04:14:37;;;;;;;26.55;16.33;;;5.50;99.90;;;;;;5073847;28;20255;-74
2024/02/27 04:17:04;;;;;;;24.58;15.70;;;5.50;99.90;;;;;;5070963;28;20632;-72
2024/02/27 04:19:31;;;;;;;30.73;17.40;;;5.50;99.90;;;;;;5073188;28;20200;-72
2024/02/27 04:22:00;;;;;;;34.92;18.17;;;5.50;99.90;;;;;;5067388;28;20332;-71
2024/02/27 04:24:26;;;;;;;26.92;17.30;;;5.50;99.90;;;;;;5061529;28;20220;-74
2024/02/27 04:26:53;;;;;;;28.83;16.98;;;5.50;99.90;;;;;;5082872;28;20255;-72
2024/02/27 04:29:21;;;;;;;31.48;19.55;;;5.60;99.90;;;;;;5070507;28;20199;-73
2024/02/27 04:31:48;;;;;;;29.67;17.27;;;5.60;99.90;;;;;;5069549;28;20200;-73
2024/02/27 04:34:15;;;;;;;31.23;18.02;;;5.60;99.90;;;;;;5064439;28;20682;-73
2024/02/27 04:36:46;;;;;;;28.92;17.70;;;5.60;99.90;;;;;;5067103;28;20683;-72
2024/02/27 04:39:15;;;;;;;31.58;18.85;;;5.60;99.90;;;;;;5069911;28;20313;-71
2024/02/27 04:41:42;;;;;;;36.17;19.30;;;5.70;99.90;;;;;;5066395;28;20618;-70
2024/02/27 04:44:11;;;;;;;32.58;19.13;;;5.70;99.90;;;;;;5060310;28;20309;-75
2024/02/27 04:46:38;;;;;;;35.47;20.17;;;5.80;99.90;;;;;;5063067;28;20211;-73
2024/02/27 04:49:05;;;;;;;37.03;19.00;;;5.90;99.90;;;;;;5061760;28;20207;-72
2024/02/27 04:51:32;;;;;;;36.83;17.70;;;5.90;99.90;;;;;;5064220;28;20313;-73
2024/02/27 04:53:59;;;;;;;28.98;18.55;;;5.80;99.90;;;;;;5077232;28;20712;-74
2024/02/27 04:56:27;;;;;;;28.02;15.90;;;5.80;99.90;;;;;;5069290;28;20611;-74
2024/02/27 04:58:55;;;;;;;23.58;15.48;;;5.80;99.90;;;;;;5066398;28;20199;-73
2024/02/27 05:01:22;;;;;;;28.10;15.82;;;5.80;99.90;;;;;;5079860;28;20717;-72
2024/02/27 05:03:49;;;;;;;25.83;15.70;;;5.80;99.90;;;;;;5067621;28;20218;-72
2024/02/27 05:06:16;;;;;;;28.65;17.83;;;5.70;99.90;;;;;;5070326;28;20260;-72
2024/02/27 05:08:43;;;;;;;28.65;17.85;;;5.70;99.90;;;;;;5067184;28;20227;-71
2024/02/27 05:11:10;;;;;;;27.67;16.17;;;5.70;99.90;;;;;;5070175;28;20231;-75
2024/02/27 05:13:40;;;;;;;26.83;17.00;;;5.80;99.90;;;;;;5069597;28;20229;-75
2024/02/27 05:16:07;;;;;;;27.55;16.98;;;5.80;99.90;;;;;;5067941;28;20212;-72
2024/02/27 05:18:34;;;;;;;24.52;15.77;;;5.80;99.90;;;;;;5068647;28;20232;-74
2024/02/27 05:21:04;;;;;;;24.45;15.95;;;5.80;99.90;;;;;;5070891;28;20211;-73
2024/02/27 05:23:32;;;;;;;26.88;15.80;;;5.80;99.90;;;;;;5061699;28;20227;-73
2024/02/27 05:25:59;;;;;;;24.35;14.63;;;5.70;99.90;;;;;;5073341;28;20253;-71
2024/02/27 05:28:26;;;;;;;28.25;16.23;;;5.70;99.90;;;;;;5070953;28;20212;-72
2024/02/27 05:30:54;;;;;;;17.77;11.80;;;5.80;99.90;;;;;;5077118;28;20235;-73
2024/02/27 05:33:21;;;;;;;24.98;15.60;;;5.80;99.90;;;;;;5086233;28;20289;-73
2024/02/27 05:35:48;;;;;;;27.75;15.25;;;5.90;99.90;;;;;;5083687;28;20207;-74
2024/02/27 05:38:15;;;;;;;34.63;18.55;;;5.80;99.90;;;;;;5067972;28;20257;-73
2024/02/27 05:40:42;;;;;;;27.80;17.20;;;5.80;99.90;;;;;;5068481;28;20200;-72
2024/02/27 05:43:10;;;;;;;31.35;18.55;;;5.80;99.90;;;;;;5058454;28;20694;-72
2024/02/27 05:45:37;;;;;;;29.73;19.08;;;5.80;99.90;;;;;;5073223;28;20208;-70
2024/02/27 05:48:11;;;;;;;24.92;16.48;;;5.80;99.90;;;;;;5062564;28;20580;-71
2024/02/27 05:50:38;;;;;;;27.30;17.80;;;5.90;99.90;;;;;;5059038;28;20288;-72
2024/02/27 05:53:05;;;;;;;29.48;16.13;;;5.90;99.90;;;;;;5070541;28;20278;-71
2024/02/27 05:55:32;;;;;;;22.65;15.82;;;5.90;99.90;;;;;;5062507;28;20693;-75
2024/02/27 05:58:00;;;;;;;23.38;14.15;;;6.10;99.90;;;;;;5067770;28;20218;-70
2024/02/27 06:00:27;;;;;;;26.60;15.18;;;6.10;99.90;;;;;;5057485;28;20200;-73
2024/02/27 06:02:54;;;;;;;25.65;16.50;;;6.10;99.90;;;;;;5058550;28;20639;-71
2024/02/27 06:05:23;;;;;;;22.83;14.77;;;6.10;99.90;;;;;;5054645;28;20211;-72
2024/02/27 06:07:51;;;;;;;25.70;14.75;;;6.10;99.90;;;;;;5068031;28;20265;-74
2024/02/27 06:10:18;;;;;;;25.45;14.90;;;6.00;99.90;;;;;;5058767;28;20591;-75
2024/02/27 06:12:45;;;;;;;31.75;18.75;;;6.10;99.90;;;;;;5071630;28;20224;-73
2024/02/27 06:15:12;;;;;;;31.35;18.20;;;6.00;99.90;;;;;;5062237;28;20219;-73
2024/02/27 06:17:39;;;;;;;29.15;16.40;;;6.00;99.90;;;;;;5065088;28;20729;-76
2024/02/27 06:22:10;;;;;;;28.77;15.35;;;6.00;99.90;;;;;;5061859;28;20246;-74
2024/02/27 06:22:55;;;;;;;31.67;19.65;;;5.90;99.90;;;;;;5059218;28;20308;-75
2024/02/27 06:25:22;;;;;;;28.63;15.73;;;5.90;99.90;;;;;;5062687;28;20207;-73
2024/02/27 06:27:49;;;;;;;36.30;20.48;;;5.90;99.90;;;;;;5066860;28;20204;-76
2024/02/27 06:30:16;;;;;;;34.53;19.17;;;5.90;99.90;;;;;;5064252;28;20227;-74
2024/02/27 06:32:43;;;;;;;33.60;18.60;;;6.00;99.90;;;;;;5069756;28;20246;-75
2024/02/27 06:35:11;;;;;;;36.90;21.20;;;6.10;99.90;;;;;;5060428;28;20544;-73
2024/02/27 06:37:38;;;;;;;33.90;19.77;;;6.10;99.90;;;;;;5067741;28;20219;-72
2024/02/27 06:40:07;;;;;;;35.92;20.52;;;6.10;99.90;;;;;;5068462;28;20261;-73
2024/02/27 06:42:36;;;;;;;39.67;20.33;;;6.10;99.90;;;;;;5068501;28;20238;-71
2024/02/27 06:45:04;;;;;;;30.90;19.77;;;6.00;99.90;;;;;;5066203;28;20200;-73
2024/02/27 06:47:31;;;;;;;36.15;19.10;;;6.10;99.90;;;;;;5064302;28;20239;-72
2024/02/27 06:49:59;;;;;;;29.92;16.75;;;6.10;99.90;;;;;;5063078;28;20659;-74
2024/02/27 06:52:26;;;;;;;35.75;20.17;;;6.10;99.90;;;;;;5068187;28;20727;-74
2024/02/27 06:54:53;;;;;;;27.35;17.30;;;6.10;99.90;;;;;;5062267;28;20239;-74
2024/02/27 06:57:22;;;;;;;28.30;18.13;;;6.10;99.90;;;;;;5056161;28;20744;-74
2024/02/27 06:59:50;;;;;;;35.60;19.05;;;6.10;99.90;;;;;;5053190;28;20656;-75
2024/02/27 07:02:17;;;;;;;22.52;14.23;;;6.10;99.90;;;;;;5062220;28;20539;-72
2024/02/27 07:04:44;;;;;;;30.17;17.63;;;6.00;99.90;;;;;;5061443;28;20204;-72
2024/02/27 07:07:12;;;;;;;29.13;15.77;;;5.90;99.90;;;;;;5064126;28;20610;-75
2024/02/27 07:09:39;;;;;;;27.52;15.30;;;5.90;99.90;;;;;;5060698;28;20685;-74
2024/02/27 07:12:07;;;;;;;29.92;15.68;;;5.70;99.90;;;;;;5066769;28;20231;-70
2024/02/27 07:14:41;;;;;;;22.60;14.50;;;5.70;99.90;;;;;;5073065;28;20223;-73
2024/02/27 07:17:08;;;;;;;29.63;16.15;;;5.70;99.90;;;;;;5070336;28;20200;-75
2024/02/27 07:19:36;;;;;;;27.38;15.38;;;5.70;99.90;;;;;;5062506;28;20203;-75
2024/02/27 07:22:03;;;;;;;26.88;16.25;;;5.80;99.90;;;;;;5066082;28;20203;-73
2024/02/27 07:24:30;;;;;;;27.35;15.82;;;5.80;99.90;;;;;;5061694;28;21826;-73
2024/02/27 07:26:58;;;;;;;31.15;16.38;;;5.80;99.90;;;;;;5067304;28;20235;-70
2024/02/27 07:29:25;;;;;;;28.05;16.65;;;5.90;99.90;;;;;;5067398;28;20731;-72
2024/02/27 07:31:54;;;;;;;27.90;16.20;;;5.90;99.90;;;;;;5057551;28;20223;-77
2024/02/27 07:34:21;;;;;;;27.15;15.02;;;6.10;99.90;;;;;;5058597;28;20219;-74
2024/02/27 07:36:49;;;;;;;38.83;16.30;;;6.00;99.90;;;;;;5059955;28;20204;-76
2024/02/27 07:39:16;;;;;;;27.65;15.35;;;6.10;99.90;;;;;;5064740;28;20204;-73
2024/02/27 07:41:43;;;;;;;34.80;15.88;;;6.20;99.90;;;;;;5060354;28;20211;-75
2024/02/27 07:44:10;;;;;;;36.25;15.23;;;6.20;99.90;;;;;;5070711;28;20293;-70
2024/02/27 07:46:37;;;;;;;27.90;15.10;;;6.10;99.90;;;;;;5073417;28;20238;-73
2024/02/27 07:49:05;;;;;;;31.75;17.25;;;6.00;99.90;;;;;;5064286;28;20257;-73
2024/02/27 07:51:35;;;;;;;29.42;16.48;;;6.20;99.90;;;;;;5062645;28;20292;-72
2024/02/27 07:54:03;;;;;;;29.50;15.57;;;6.20;99.90;;;;;;5072024;28;20300;-71
2024/02/27 07:56:32;;;;;;;25.35;16.45;;;6.30;99.90;;;;;;5063985;28;20204;-71
2024/02/27 07:58:59;;;;;;;30.70;17.98;;;6.40;99.90;;;;;;5061843;28;20610;-72
2024/02/27 08:01:26;;;;;;;26.17;15.77;;;6.30;99.90;;;;;;5071956;28;20202;-72
2024/02/27 08:03:54;;;;;;;24.77;14.95;;;6.40;99.90;;;;;;5062330;28;20329;-74
2024/02/27 08:06:26;;;;;;;26.33;16.55;;;6.40;99.90;;;;;;5064618;28;20208;-74
2024/02/27 08:08:54;;;;;;;25.88;16.73;;;6.40;99.90;;;;;;5067189;28;20302;-75
2024/02/27 08:11:23;;;;;;;26.83;15.30;;;6.40;99.90;;;;;;5065008;28;20227;-74
2024/02/27 08:13:50;;;;;;;27.45;15.70;;;6.50;99.90;;;;;;5071911;28;20226;-76
2024/02/27 08:16:17;;;;;;;23.35;15.55;;;6.50;99.90;;;;;;5072622;28;20241;-72
2024/02/27 08:18:44;;;;;;;21.73;13.32;;;6.60;99.90;;;;;;5062611;28;20232;-72
2024/02/27 08:21:12;;;;;;;34.85;16.85;;;6.60;99.90;;;;;;5064395;28;20226;-73
2024/02/27 08:23:41;;;;;;;24.27;16.58;;;6.60;99.90;;;;;;5064844;28;20247;-74
2024/02/27 08:26:08;;;;;;;31.85;15.90;;;6.50;99.90;;;;;;5067797;28;20234;-74
2024/02/27 08:28:36;;;;;;;25.13;14.18;;;6.50;99.90;;;;;;5070103;28;20269;-72
2024/02/27 08:31:03;;;;;;;27.17;17.10;;;6.40;99.90;;;;;;5067629;28;20721;-74
2024/02/27 08:33:30;;;;;;;28.65;14.85;;;6.30;99.90;;;;;;5064327;28;20658;-74
2024/02/27 08:35:57;;;;;;;25.48;15.45;;;6.40;99.90;;;;;;5067377;28;20203;-75
2024/02/27 08:38:24;;;;;;;23.92;14.27;;;6.50;99.90;;;;;;5057018;28;20281;-76
2024/02/27 08:40:52;;;;;;;25.15;15.32;;;6.60;99.90;;;;;;5069593;28;20606;-72
2024/02/27 08:43:19;;;;;;;21.27;14.75;;;6.70;99.90;;;;;;5063617;28;20297;-74
2024/02/27 08:45:46;;;;;;;22.42;14.18;;;6.60;99.90;;;;;;5062028;28;20226;-75
2024/02/27 08:48:13;;;;;;;21.95;15.05;;;6.60;99.90;;;;;;5063081;28;20589;-75
2024/02/27 08:50:43;;;;;;;22.52;14.35;;;6.70;99.90;;;;;;5066053;28;20322;-72
2024/02/27 08:53:11;;;;;;;24.85;15.20;;;6.80;99.90;;;;;;5062162;28;20246;-73
2024/02/27 08:55:38;;;;;;;24.08;15.55;;;6.80;99.90;;;;;;5070438;28;20278;-72
2024/02/27 08:58:06;;;;;;;27.00;15.68;;;6.90;99.90;;;;;;5062290;28;20261;-73
2024/02/27 09:00:33;;;;;;;25.20;15.73;;;6.90;99.90;;;;;;5063986;28;20261;-73
2024/02/27 09:03:00;;;;;;;29.35;15.25;;;7.00;99.90;;;;;;5059260;28;20256;-75
2024/02/27 09:05:27;;;;;;;27.70;15.82;;;7.00;99.90;;;;;;5064428;28;20212;-71
2024/02/27 09:07:54;;;;;;;21.00;13.77;;;6.90;99.90;;;;;;5061992;28;20196;-72
2024/02/27 09:10:21;;;;;;;22.23;14.88;;;7.00;99.90;;;;;;5074933;28;20208;-72
2024/02/27 09:12:48;;;;;;;23.85;14.40;;;7.10;99.90;;;;;;5062542;28;20223;-70
2024/02/27 09:15:18;;;;;;;21.85;13.50;;;7.30;99.90;;;;;;5072987;28;20223;-73
2024/02/27 09:17:45;;;;;;;21.58;14.32;;;7.30;99.90;;;;;;5075597;28;20230;-71
2024/02/27 09:20:13;;;;;;;26.20;15.70;;;7.30;99.90;;;;;;5072262;28;20203;-73
2024/02/27 09:22:40;;;;;;;23.95;15.98;;;7.30;99.90;;;;;;5067886;28;20230;-74
2024/02/27 09:25:08;;;;;;;21.95;15.55;;;7.40;99.90;;;;;;5072164;28;20207;-71
2024/02/27 09:27:35;;;;;;;21.88;14.10;;;7.60;99.90;;;;;;5066918;28;20246;-72
2024/02/27 09:30:03;;;;;;;19.52;14.57;;;7.80;99.90;;;;;;5065327;28;20199;-73
2024/02/27 09:32:31;;;;;;;25.00;16.27;;;7.90;99.90;;;;;;5070616;28;20740;-72
2024/02/27 09:34:59;;;;;;;25.02;15.65;;;7.80;99.90;;;;;;5058939;28;20618;-76
2024/02/27 09:37:26;;;;;;;25.05;15.93;;;7.80;99.90;;;;;;5057984;28;20223;-73
2024/02/27 09:39:53;;;;;;;21.83;13.95;;;7.90;99.90;;;;;;5062511;28;20334;-72
2024/02/27 09:42:21;;;;;;;29.90;16.42;;;8.00;99.90;;;;;;5061315;28;20203;-76
2024/02/27 09:44:52;;;;;;;31.00;15.07;;;8.10;99.90;;;;;;5055783;28;20242;-73
2024/02/27 09:47:20;;;;;;;19.40;13.48;;;8.00;99.90;;;;;;5066498;28;20203;-76
2024/02/27 09:49:49;;;;;;;24.63;15.38;;;8.00;99.90;;;;;;5069058;28;20196;-75
2024/02/27 09:52:18;;;;;;;20.98;14.55;;;7.80;99.90;;;;;;5064234;28;20269;-76
2024/02/27 09:54:46;;;;;;;25.33;15.98;;;7.90;99.90;;;;;;5061673;28;20211;-72
2024/02/27 09:57:14;;;;;;;25.23;13.60;;;7.90;99.90;;;;;;5067096;28;20282;-73
2024/02/27 09:59:41;;;;;;;29.15;16.98;;;7.90;99.90;;;;;;5055490;28;20231;-74
2024/02/27 10:02:12;;;;;;;23.98;14.20;;;7.90;99.90;;;;;;5059991;28;20199;-74
2024/02/27 10:04:40;;;;;;;26.83;16.30;;;7.80;99.90;;;;;;5067404;28;20203;-72
2024/02/27 10:07:10;;;;;;;20.63;13.68;;;7.80;99.90;;;;;;5072777;28;20257;-74
2024/02/27 10:09:39;;;;;;;20.10;13.77;;;7.70;99.90;;;;;;5068609;28;20204;-73
2024/02/27 10:12:06;;;;;;;29.70;17.58;;;7.90;99.90;;;;;;5057041;28;20237;-73
2024/02/27 10:14:36;;;;;;;23.17;14.73;;;8.00;99.90;;;;;;5068912;28;20304;-73
2024/02/27 10:17:04;;;;;;;24.00;14.07;;;7.80;99.90;;;;;;5060982;28;20326;-73
2024/02/27 10:19:38;;;;;;;24.58;16.20;;;7.80;99.90;;;;;;5057237;28;20208;-73
2024/02/27 10:22:06;;;;;;;24.58;16.45;;;7.80;99.90;;;;;;5066919;28;20199;-71
2024/02/27 10:24:35;;;;;;;20.90;14.18;;;7.90;99.90;;;;;;5068550;28;20274;-73
2024/02/27 10:27:07;;;;;;;22.58;14.35;;;7.90;99.90;;;;;;5064770;28;20211;-72
2024/02/27 10:29:34;;;;;;;24.58;14.73;;;7.80;99.90;;;;;;5066759;28;20208;-74
2024/02/27 10:32:02;;;;;;;23.88;15.38;;;7.60;99.90;;;;;;5067404;28;20673;-71
2024/02/27 10:34:30;;;;;;;28.65;14.93;;;7.60;99.90;;;;;;5066710;28;20413;-73
2024/02/27 10:36:58;;;;;;;21.35;14.10;;;7.50;99.90;;;;;;5062802;28;20195;-73
2024/02/27 10:39:25;;;;;;;27.08;15.70;;;7.50;99.90;;;;;;5075101;28;20253;-72
2024/02/27 10:41:55;;;;;;;24.95;14.43;;;7.70;99.90;;;;;;5058559;28;20207;-72
2024/02/27 10:44:26;;;;;;;26.27;15.70;;;7.90;99.90;;;;;;5060845;28;20246;-71
2024/02/27 10:46:55;;;;;;;23.67;14.63;;;8.00;99.90;;;;;;5075083;28;20205;-73
2024/02/27 10:49:22;;;;;;;23.42;14.18;;;8.00;99.90;;;;;;5074192;28;20286;-70
2024/02/27 10:51:49;;;;;;;21.15;12.30;;;8.00;99.90;;;;;;5073782;28;20273;-69
2024/02/27 10:54:17;;;;;;;22.13;15.77;;;8.00;99.90;;;;;;5066990;28;20277;-73
2024/02/27 10:56:46;;;;;;;22.75;15.38;;;8.10;99.90;;;;;;5064892;28;20219;-73
2024/02/27 10:59:15;;;;;;;24.10;13.93;;;8.00;99.90;;;;;;5064764;28;20208;-71
2024/02/27 11:01:42;;;;;;;21.52;13.57;;;8.00;99.90;;;;;;5057627;28;20196;-72
2024/02/27 11:04:13;;;;;;;20.08;15.48;;;8.20;99.90;;;;;;5067230;28;20289;-72
2024/02/27 11:06:41;;;;;;;24.50;15.10;;;8.40;99.90;;;;;;5061715;28;20245;-73
2024/02/27 11:09:12;;;;;;;21.48;14.45;;;8.30;99.90;;;;;;5062689;28;20576;-72
2024/02/27 11:11:42;;;;;;;23.65;13.98;;;8.30;99.90;;;;;;5053850;28;20234;-75
2024/02/27 11:14:12;;;;;;;23.20;15.63;;;8.40;99.90;;;;;;5058023;28;20273;-72
2024/02/27 11:16:46;;;;;;;25.60;15.85;;;8.60;99.90;;;;;;5063105;28;20211;-74
2024/02/27 11:19:17;;;;;;;20.85;15.13;;;8.70;99.90;;;;;;5057820;28;20289;-73
2024/02/27 11:21:47;;;;;;;24.45;13.98;;;8.60;99.90;;;;;;5061655;28;20200;-72
2024/02/27 11:24:14;;;;;;;19.85;12.25;;;8.50;99.90;;;;;;5070862;28;20223;-70
2024/02/27 11:26:42;;;;;;;26.35;14.65;;;8.30;99.90;;;;;;5071846;28;20207;-72
2024/02/27 11:29:10;;;;;;;23.10;14.73;;;8.20;99.90;;;;;;5065730;28;20211;-70
2024/02/27 11:31:38;;;;;;;19.58;14.32;;;8.20;99.90;;;;;;5060825;28;20204;-73
2024/02/27 11:34:07;;;;;;;21.15;12.80;;;8.10;99.90;;;;;;5060414;28;20224;-73
2024/02/27 11:36:35;;;;;;;31.25;14.60;;;8.10;99.90;;;;;;5062183;28;20242;-73
2024/02/27 11:39:02;;;;;;;22.73;13.77;;;8.30;99.90;;;;;;5061639;28;20283;-73
2024/02/27 11:41:29;;;;;;;22.85;12.65;;;8.40;99.90;;;;;;5067702;28;20233;-72
2024/02/27 11:43:57;;;;;;;23.17;13.57;;;8.10;99.90;;;;;;5061511;28;20643;-71
2024/02/27 11:46:36;;;;;;;19.10;13.30;;;8.20;99.90;;;;;;5066200;28;20477;-70
2024/02/27 11:49:04;;;;;;;24.77;15.77;;;8.20;99.90;;;;;;5067315;28;20210;-73
2024/02/27 11:51:36;;;;;;;20.40;13.32;;;8.30;99.90;;;;;;5068493;28;20208;-71
2024/02/27 11:54:07;;;;;;;22.13;13.80;;;8.40;99.90;;;;;;5074259;28;20227;-71
2024/02/27 11:56:39;;;;;;;18.45;12.32;;;8.40;99.90;;;;;;5078611;28;20233;-71
2024/02/27 11:59:06;;;;;;;17.83;13.63;;;8.50;99.90;;;;;;5085377;28;20279;-73
2024/02/27 12:01:33;;;;;;;17.75;12.13;;;8.70;99.90;;;;;;5079666;28;20227;-75
2024/02/27 12:04:06;;;;;;;17.98;12.63;;;8.90;99.90;;;;;;5068869;28;20226;-73
2024/02/27 12:06:35;;;;;;;21.85;13.60;;;9.10;99.90;;;;;;5068308;28;20210;-73
2024/02/27 12:09:02;;;;;;;24.02;13.05;;;9.30;99.90;;;;;;5061523;28;20290;-75
2024/02/27 12:11:29;;;;;;;17.30;12.35;;;9.30;99.90;;;;;;5060704;28;20212;-73
2024/02/27 12:13:57;;;;;;;18.70;13.27;;;9.40;99.90;;;;;;5062075;28;20231;-71
2024/02/27 12:16:24;;;;;;;19.60;14.05;;;9.50;99.90;;;;;;5067307;28;20211;-73
2024/02/27 12:18:53;;;;;;;24.38;14.38;;;9.50;99.90;;;;;;5056784;28;20265;-71
2024/02/27 12:21:31;;;;;;;22.83;13.65;;;9.30;99.90;;;;;;5062014;28;20233;-74
2024/02/27 12:24:13;;;;;;;18.38;12.50;;;9.20;99.90;;;;;;5062487;28;20211;-73
2024/02/27 12:26:40;;;;;;;17.13;12.35;;;9.20;99.90;;;;;;5060252;28;20215;-70
2024/02/27 12:29:09;;;;;;;17.52;13.32;;;9.30;99.90;;;;;;5053781;28;20200;-75
2024/02/27 12:31:37;;;;;;;15.10;11.25;;;9.40;99.90;;;;;;5064155;28;20203;-72
2024/02/27 12:34:05;;;;;;;16.70;11.57;;;9.50;99.90;;;;;;5065256;28;20277;-70
2024/02/27 12:36:33;;;;;;;20.73;15.05;;;9.60;99.90;;;;;;5065150;28;20525;-73
2024/02/27 12:39:00;;;;;;;22.10;14.57;;;9.70;99.90;;;;;;5064170;28;20203;-73